Time;durP1;ratioP1;P1;durP2;ratioP2;P2;SDS_P1;SDS_P2;PMS_P1;PMS_P2;Temp;Humidity;BMP_temperature;BMP_pressure;BME280_temperature;BME280_humidity;BME280_pressure;Samples;Min_cycle;Max_cycle;Signal;HPM_P1;HPM_P2
2024/04/18 00:00:26;;;;;;;6.97;2.00;;;5.20;99.90;;;;;;5310789;27;20349;-70
2024/04/18 00:02:52;;;;;;;5.43;1.80;;;5.20;99.90;;;;;;5310900;26;20013;-70
2024/04/18 00:05:19;;;;;;;6.30;1.80;;;5.10;99.90;;;;;;5310335;26;20002;-70
2024/04/18 00:07:45;;;;;;;4.47;2.83;;;5.10;99.90;;;;;;5310747;26;20457;-70
2024/04/18 00:10:12;;;;;;;3.13;1.88;;;5.10;99.90;;;;;;5310495;27;20013;-70
2024/04/18 00:12:39;;;;;;;5.35;1.88;;;5.10;99.90;;;;;;5347218;21;20005;-73
2024/04/18 00:15:07;;;;;;;6.53;2.67;;;5.10;99.90;;;;;;5344554;26;20001;-73
2024/04/18 00:17:34;;;;;;;2.75;1.70;;;5.10;99.90;;;;;;5343386;26;20020;-73
2024/04/18 00:19:59;;;;;;;4.72;1.60;;;5.10;99.90;;;;;;5344759;26;20074;-74
2024/04/18 00:22:26;;;;;;;5.28;1.77;;;5.00;99.90;;;;;;5343350;26;20424;-73
2024/04/18 00:24:51;;;;;;;5.25;1.55;;;5.00;99.90;;;;;;5344482;26;20386;-72
2024/04/18 00:27:17;;;;;;;4.53;2.15;;;5.00;99.90;;;;;;5345165;26;20015;-73
2024/04/18 00:29:43;;;;;;;4.25;1.50;;;5.00;99.90;;;;;;5343356;26;20005;-72
2024/04/18 00:32:13;;;;;;;4.00;2.25;;;5.00;99.90;;;;;;5345014;26;20005;-72
2024/04/18 00:34:39;;;;;;;4.80;2.25;;;5.00;99.90;;;;;;5342971;26;20547;-72
2024/04/18 00:37:05;;;;;;;4.88;2.05;;;4.90;99.90;;;;;;5344824;26;20005;-73
2024/04/18 00:39:30;;;;;;;3.60;2.00;;;4.90;99.90;;;;;;5344919;26;20012;-73
2024/04/18 00:41:56;;;;;;;4.50;1.85;;;4.90;99.90;;;;;;5344815;26;20075;-73
2024/04/18 00:44:23;;;;;;;6.18;1.50;;;4.90;99.90;;;;;;5344391;26;20081;-72
2024/04/18 00:46:48;;;;;;;4.97;2.00;;;4.90;99.90;;;;;;5344768;26;20384;-73
2024/04/18 00:49:15;;;;;;;3.55;1.65;;;4.80;99.90;;;;;;5345529;26;20013;-73
2024/04/18 00:52:01;;;;;;;10.25;2.45;;;4.80;99.90;;;;;;5342907;26;20016;-73
2024/04/18 00:54:27;;;;;;;3.42;1.70;;;4.70;99.90;;;;;;5344642;26;20009;-72
2024/04/18 00:56:53;;;;;;;7.90;2.85;;;4.70;99.90;;;;;;5344884;26;20005;-73
2024/04/18 00:59:19;;;;;;;3.60;1.90;;;4.70;99.90;;;;;;5345024;26;20349;-73
2024/04/18 01:01:47;;;;;;;3.95;1.60;;;4.70;99.90;;;;;;5344281;26;20016;-72
2024/04/18 01:04:13;;;;;;;4.80;1.80;;;4.70;99.90;;;;;;5343926;26;20005;-73
2024/04/18 01:06:41;;;;;;;2.92;1.80;;;4.60;99.90;;;;;;5345934;26;20066;-73
2024/04/18 01:09:07;;;;;;;4.28;1.58;;;4.70;99.90;;;;;;5347828;26;20718;-73
2024/04/18 01:11:33;;;;;;;3.15;1.92;;;4.60;99.90;;;;;;5347382;26;20004;-73
2024/04/18 01:14:05;;;;;;;3.90;1.58;;;4.50;99.90;;;;;;5347046;26;20011;-73
2024/04/18 01:16:31;;;;;;;3.90;1.48;;;4.50;99.90;;;;;;5347838;26;20581;-72
2024/04/18 01:18:57;;;;;;;3.97;1.38;;;4.50;99.90;;;;;;5347665;26;20009;-73
2024/04/18 01:21:23;;;;;;;3.97;1.42;;;4.50;99.90;;;;;;5347412;26;20012;-73
2024/04/18 01:23:50;;;;;;;3.63;1.52;;;4.50;99.90;;;;;;5346913;26;20001;-72
2024/04/18 01:26:18;;;;;;;3.58;1.63;;;4.50;99.90;;;;;;5347487;26;20477;-72
2024/04/18 01:28:44;;;;;;;6.22;2.08;;;4.50;99.90;;;;;;5347419;26;20004;-73
2024/04/18 01:31:15;;;;;;;4.43;1.25;;;4.50;99.90;;;;;;5347179;26;20004;-73
2024/04/18 01:33:40;;;;;;;5.78;1.63;;;4.40;99.90;;;;;;5346795;26;20453;-72
2024/04/18 01:36:06;;;;;;;5.57;1.70;;;4.40;99.90;;;;;;5347342;26;20004;-72
2024/04/18 01:38:32;;;;;;;1.98;1.20;;;4.40;99.90;;;;;;5347620;26;20457;-73
2024/04/18 01:40:58;;;;;;;5.82;1.30;;;4.40;99.90;;;;;;5347103;26;20016;-72
2024/04/18 01:43:23;;;;;;;5.82;1.38;;;4.50;99.90;;;;;;5347175;26;20471;-72
2024/04/18 01:45:50;;;;;;;3.20;1.63;;;4.50;99.90;;;;;;5347119;26;20009;-73
2024/04/18 01:48:16;;;;;;;2.25;1.33;;;4.50;99.90;;;;;;5347423;26;20373;-72
2024/04/18 01:50:42;;;;;;;5.38;1.63;;;4.50;99.90;;;;;;5347178;26;20048;-73
2024/04/18 01:53:07;;;;;;;6.03;1.65;;;4.50;99.90;;;;;;5347685;26;20005;-73
2024/04/18 01:55:33;;;;;;;8.57;2.08;;;4.50;99.90;;;;;;5347030;26;20013;-72
2024/04/18 01:57:59;;;;;;;2.85;1.33;;;4.50;99.90;;;;;;5347459;26;20004;-72
2024/04/18 02:00:24;;;;;;;6.05;1.95;;;4.40;99.90;;;;;;5347081;26;20005;-72
2024/04/18 02:02:50;;;;;;;2.15;1.60;;;4.50;99.90;;;;;;5345818;26;20365;-72
2024/04/18 02:05:16;;;;;;;3.13;1.50;;;4.50;99.90;;;;;;5346745;26;20008;-72
2024/04/18 02:07:42;;;;;;;4.93;1.80;;;4.40;99.90;;;;;;5347213;26;20019;-72
2024/04/18 02:10:08;;;;;;;5.00;2.08;;;4.40;99.90;;;;;;5347038;26;20008;-72
2024/04/18 02:12:33;;;;;;;4.13;1.60;;;4.40;99.90;;;;;;5346860;26;20796;-73
2024/04/18 02:14:59;;;;;;;5.38;1.50;;;4.40;99.90;;;;;;5346728;26;20017;-73
2024/04/18 02:17:25;;;;;;;4.68;1.60;;;4.40;99.90;;;;;;5344664;26;20048;-72
2024/04/18 02:19:50;;;;;;;3.88;1.83;;;4.40;99.90;;;;;;5346338;26;20147;-73
2024/04/18 02:22:16;;;;;;;4.97;1.73;;;4.40;99.90;;;;;;5346905;26;20368;-73
2024/04/18 02:25:06;;;;;;;3.85;2.67;;;4.40;99.90;;;;;;5346312;26;20345;-72
2024/04/18 02:27:32;;;;;;;3.60;1.35;;;4.40;99.90;;;;;;5346850;26;20020;-72
2024/04/18 02:29:58;;;;;;;4.03;1.20;;;4.30;99.90;;;;;;5346519;26;20017;-72
2024/04/18 02:32:23;;;;;;;1.60;1.10;;;4.30;99.90;;;;;;5346717;26;20016;-72
2024/04/18 02:34:49;;;;;;;6.70;1.75;;;4.30;99.90;;;;;;5346137;26;20019;-73
2024/04/18 02:37:15;;;;;;;2.78;1.55;;;4.30;99.90;;;;;;5346928;26;20352;-73
2024/04/18 02:39:41;;;;;;;2.13;1.40;;;4.30;99.90;;;;;;5346772;26;20367;-73
2024/04/18 02:42:06;;;;;;;3.75;2.05;;;4.30;99.90;;;;;;5346521;26;20016;-72
2024/04/18 02:44:32;;;;;;;2.65;1.65;;;4.20;99.90;;;;;;5346223;26;20489;-72
2024/04/18 02:46:59;;;;;;;3.25;1.63;;;4.20;99.90;;;;;;5345008;26;20001;-72
2024/04/18 02:49:25;;;;;;;3.45;1.38;;;4.20;99.90;;;;;;5346779;26;20471;-72
2024/04/18 02:51:50;;;;;;;4.72;1.63;;;4.10;99.90;;;;;;5346491;26;20015;-72
2024/04/18 02:54:16;;;;;;;4.07;1.75;;;4.10;99.90;;;;;;5345961;26;20082;-72
2024/04/18 02:56:42;;;;;;;2.55;1.75;;;4.10;99.90;;;;;;5346622;26;20353;-72
2024/04/18 02:59:10;;;;;;;2.97;1.52;;;4.10;99.90;;;;;;5346611;26;20004;-73
2024/04/18 03:01:35;;;;;;;3.72;1.58;;;4.10;99.90;;;;;;5346576;26;20033;-73
2024/04/18 03:04:01;;;;;;;2.95;1.25;;;4.20;99.90;;;;;;5346059;26;20012;-73
2024/04/18 03:06:27;;;;;;;5.53;1.55;;;4.20;99.90;;;;;;5346009;26;20420;-73
2024/04/18 03:08:53;;;;;;;1.90;1.08;;;4.20;99.90;;;;;;5346393;26;20020;-73
2024/04/18 03:11:32;;;;;;;4.50;1.05;;;4.20;99.90;;;;;;5331476;26;20009;-75
2024/04/18 03:13:58;;;;;;;4.45;1.45;;;4.20;99.90;;;;;;5345731;26;20482;-75
2024/04/18 03:16:24;;;;;;;4.47;1.33;;;4.30;99.90;;;;;;5346099;26;20005;-74
2024/04/18 03:19:01;;;;;;;1.77;1.27;;;4.30;99.90;;;;;;5346201;26;20695;-74
2024/04/18 03:21:27;;;;;;;3.58;1.60;;;4.30;99.90;;;;;;5343998;26;20020;-74
2024/04/18 03:23:52;;;;;;;2.38;1.50;;;4.30;99.90;;;;;;5345421;26;20043;-74
2024/04/18 03:26:18;;;;;;;4.15;1.30;;;4.30;99.90;;;;;;5346008;26;20013;-74
2024/04/18 03:28:44;;;;;;;3.05;1.25;;;4.30;99.90;;;;;;5345397;26;20004;-75
2024/04/18 03:31:10;;;;;;;3.60;1.25;;;4.30;99.90;;;;;;5345704;26;20015;-75
2024/04/18 03:33:36;;;;;;;3.80;2.25;;;4.30;99.90;;;;;;5345206;26;20012;-74
2024/04/18 03:36:03;;;;;;;2.40;1.40;;;4.30;99.90;;;;;;5345581;26;20005;-74
2024/04/18 03:38:28;;;;;;;4.20;1.42;;;4.30;99.90;;;;;;5345730;26;20337;-74
2024/04/18 03:40:56;;;;;;;3.42;1.30;;;4.30;99.90;;;;;;5345531;26;20036;-74
2024/04/18 03:43:21;;;;;;;6.57;1.55;;;4.20;99.90;;;;;;5344744;26;20356;-74
2024/04/18 03:45:59;;;;;;;4.45;1.30;;;4.20;99.90;;;;;;5345024;26;20004;-74
2024/04/18 03:48:26;;;;;;;2.90;1.05;;;4.20;99.90;;;;;;5345475;26;20005;-74
2024/04/18 03:50:52;;;;;;;3.38;1.17;;;4.20;99.90;;;;;;5345230;26;20353;-75
2024/04/18 03:53:19;;;;;;;7.95;1.88;;;4.20;99.90;;;;;;5343736;26;20005;-74
2024/04/18 03:55:45;;;;;;;2.55;1.40;;;4.20;99.90;;;;;;5345225;26;20001;-74
2024/04/18 03:58:24;;;;;;;3.90;1.30;;;4.20;99.90;;;;;;5345610;26;20464;-74
2024/04/18 04:00:50;;;;;;;4.45;1.42;;;4.20;99.90;;;;;;5344948;26;20004;-74
2024/04/18 04:03:36;;;;;;;3.50;1.50;;;4.10;99.90;;;;;;5343276;26;20005;-74
2024/04/18 04:06:01;;;;;;;6.72;2.28;;;4.10;99.90;;;;;;5345411;26;20005;-74
2024/04/18 04:08:28;;;;;;;3.88;2.20;;;4.10;99.90;;;;;;5345443;26;20005;-74
2024/04/18 04:11:16;;;;;;;3.10;1.50;;;4.10;99.90;;;;;;5343562;26;20024;-74
2024/04/18 04:13:42;;;;;;;2.17;1.35;;;4.10;99.90;;;;;;5343111;26;20013;-73
2024/04/18 04:16:07;;;;;;;5.80;1.60;;;4.20;99.90;;;;;;5345619;26;20100;-73
2024/04/18 04:18:55;;;;;;;2.22;1.60;;;4.20;99.90;;;;;;5343890;26;20015;-73
2024/04/18 04:21:22;;;;;;;3.95;1.60;;;4.20;99.90;;;;;;5344868;26;20469;-73
2024/04/18 04:23:48;;;;;;;4.22;1.60;;;4.20;99.90;;;;;;5342809;26;20488;-73
2024/04/18 04:26:33;;;;;;;5.60;1.80;;;4.20;99.90;;;;;;5319532;26;20378;-73
2024/04/18 04:29:02;;;;;;;4.03;1.45;;;4.20;99.90;;;;;;5344977;26;20005;-73
2024/04/18 04:31:28;;;;;;;3.10;1.60;;;4.10;99.90;;;;;;5344978;26;20005;-73
2024/04/18 04:33:55;;;;;;;2.60;1.75;;;4.10;99.90;;;;;;5344252;26;20048;-72
2024/04/18 04:36:21;;;;;;;2.97;1.88;;;4.20;99.90;;;;;;5345129;26;20016;-73
2024/04/18 04:38:47;;;;;;;6.15;1.40;;;4.20;99.90;;;;;;5345121;26;20005;-73
2024/04/18 04:41:13;;;;;;;5.43;1.60;;;4.10;99.90;;;;;;5343515;26;20005;-74
2024/04/18 04:43:39;;;;;;;5.72;1.60;;;4.10;99.90;;;;;;5344368;26;20004;-73
2024/04/18 04:46:05;;;;;;;4.82;1.63;;;4.10;99.90;;;;;;5343213;26;20007;-73
2024/04/18 04:48:31;;;;;;;4.70;1.13;;;4.20;99.90;;;;;;5344996;26;20013;-73
2024/04/18 04:50:59;;;;;;;3.97;1.55;;;4.20;99.90;;;;;;5342843;26;20016;-72
2024/04/18 04:53:25;;;;;;;3.22;1.40;;;4.20;99.90;;;;;;5342509;26;20056;-73
2024/04/18 04:55:51;;;;;;;4.32;1.30;;;4.30;99.90;;;;;;5344473;26;20016;-75
2024/04/18 04:58:17;;;;;;;5.82;1.63;;;4.30;99.90;;;;;;5342717;26;20032;-73
2024/04/18 05:00:43;;;;;;;3.97;1.60;;;4.30;99.90;;;;;;5344441;26;20005;-73
2024/04/18 05:03:09;;;;;;;4.65;1.60;;;4.40;99.90;;;;;;5344370;26;20019;-73
2024/04/18 05:05:34;;;;;;;5.40;1.70;;;4.50;99.90;;;;;;5343729;26;20075;-73
2024/04/18 05:08:00;;;;;;;2.42;1.27;;;4.60;99.90;;;;;;5344273;26;20012;-73
2024/04/18 05:10:26;;;;;;;2.40;1.42;;;4.70;99.90;;;;;;5343932;26;20012;-73
2024/04/18 05:12:52;;;;;;;4.55;1.40;;;4.80;99.90;;;;;;5343825;26;20461;-73
2024/04/18 05:15:17;;;;;;;7.43;1.65;;;4.90;99.90;;;;;;5343467;26;20345;-73
2024/04/18 05:17:43;;;;;;;8.25;2.03;;;5.10;99.90;;;;;;5344829;26;20360;-72
2024/04/18 05:20:10;;;;;;;4.00;1.55;;;5.20;99.90;;;;;;5343797;26;20001;-73
2024/04/18 05:22:35;;;;;;;1.75;1.30;;;5.40;99.90;;;;;;5344097;26;20001;-73
2024/04/18 05:25:01;;;;;;;4.03;1.52;;;5.60;99.90;;;;;;5343854;26;20020;-72
2024/04/18 05:27:27;;;;;;;5.15;1.77;;;5.70;99.90;;;;;;5344153;26;20005;-73
2024/04/18 05:32:37;;;;;;;7.63;1.67;;;6.00;99.90;;;;;;5343769;26;20005;-73
2024/04/18 05:35:03;;;;;;;8.27;2.88;;;6.10;99.90;;;;;;5343625;26;20019;-73
2024/04/18 05:37:28;;;;;;;6.97;1.75;;;6.40;99.90;;;;;;5344113;26;20004;-73
2024/04/18 05:39:54;;;;;;;2.05;1.20;;;6.80;99.90;;;;;;5343444;26;20004;-74
2024/04/18 05:42:20;;;;;;;3.28;2.10;;;7.10;99.90;;;;;;5343543;26;20005;-74
2024/04/18 05:44:46;;;;;;;6.43;1.33;;;7.40;99.90;;;;;;5343039;26;20004;-74
2024/04/18 05:47:12;;;;;;;4.38;1.35;;;7.60;99.90;;;;;;5343536;26;20016;-74
2024/04/18 05:49:38;;;;;;;5.32;1.83;;;7.90;99.90;;;;;;5343966;26;20019;-75
2024/04/18 05:52:04;;;;;;;5.22;1.42;;;8.10;99.90;;;;;;5343978;26;20464;-75
2024/04/18 05:54:30;;;;;;;3.33;1.38;;;8.50;99.90;;;;;;5346668;26;20029;-74
2024/04/18 05:56:56;;;;;;;4.60;1.45;;;8.30;99.90;;;;;;5347403;26;20016;-74
2024/04/18 05:59:22;;;;;;;7.60;1.70;;;8.50;99.90;;;;;;5347185;26;20005;-75
2024/04/18 06:01:47;;;;;;;4.05;1.30;;;8.60;99.90;;;;;;5345185;26;20445;-75
2024/04/18 06:04:13;;;;;;;5.35;2.25;;;8.80;99.90;;;;;;5346608;26;20078;-75
2024/04/18 06:06:39;;;;;;;4.43;1.35;;;9.00;99.90;;;;;;5345811;26;20087;-75
2024/04/18 06:09:05;;;;;;;7.72;1.80;;;9.00;99.90;;;;;;5347501;26;20012;-75
2024/04/18 06:11:42;;;;;;;8.60;1.63;;;9.30;99.90;;;;;;5347098;26;20005;-75
2024/04/18 06:14:08;;;;;;;6.18;1.92;;;9.50;99.90;;;;;;5346567;26;20029;-75
2024/04/18 06:16:36;;;;;;;9.75;2.08;;;9.70;99.90;;;;;;5347033;26;20005;-75
2024/04/18 06:19:02;;;;;;;5.18;1.38;;;9.60;99.90;;;;;;5347046;26;20352;-74
2024/04/18 06:21:27;;;;;;;4.43;1.60;;;9.50;99.90;;;;;;5344962;26;20005;-73
2024/04/18 06:23:53;;;;;;;4.70;1.38;;;9.20;99.90;;;;;;5346467;26;20333;-74
2024/04/18 06:26:19;;;;;;;7.60;2.10;;;9.10;99.90;;;;;;5346868;26;20472;-73
2024/04/18 06:28:45;;;;;;;5.32;2.05;;;9.10;99.90;;;;;;5345446;26;20456;-75
2024/04/18 06:31:11;;;;;;;5.15;1.95;;;9.00;99.90;;;;;;5346280;26;20456;-76
2024/04/18 06:33:39;;;;;;;5.15;2.20;;;9.10;99.90;;;;;;5346047;26;20016;-76
2024/04/18 06:36:05;;;;;;;5.10;2.42;;;9.40;99.90;;;;;;5346963;26;20005;-75
2024/04/18 06:38:36;;;;;;;3.95;1.52;;;9.80;99.90;;;;;;5345606;26;20005;-74
2024/04/18 06:41:04;;;;;;;5.07;1.90;;;10.20;99.90;;;;;;5346819;26;20001;-76
2024/04/18 06:43:30;;;;;;;4.93;1.92;;;10.40;99.90;;;;;;5344251;26;20016;-76
2024/04/18 06:45:56;;;;;;;3.35;2.05;;;10.50;99.90;;;;;;5346465;26;20005;-76
2024/04/18 06:48:22;;;;;;;4.07;2.08;;;10.60;99.90;;;;;;5346506;26;20041;-76
2024/04/18 06:50:49;;;;;;;2.20;1.60;;;10.90;99.90;;;;;;5346171;26;20487;-76
2024/04/18 06:53:14;;;;;;;2.78;1.70;;;11.00;99.90;;;;;;5346393;26;20013;-76
2024/04/18 06:55:40;;;;;;;7.00;1.83;;;10.90;99.90;;;;;;5345918;26;20009;-76
2024/04/18 06:58:06;;;;;;;5.00;2.30;;;11.10;99.90;;;;;;5342528;26;20008;-76
2024/04/18 07:00:32;;;;;;;5.22;1.92;;;11.20;99.90;;;;;;5327481;26;20010;-76
2024/04/18 07:02:58;;;;;;;5.43;1.50;;;11.20;99.90;;;;;;5345536;26;20013;-76
2024/04/18 07:05:24;;;;;;;5.93;1.23;;;11.40;99.90;;;;;;5344624;26;20079;-76
2024/04/18 07:07:52;;;;;;;5.05;1.95;;;11.40;99.90;;;;;;5345926;26;20005;-76
2024/04/18 07:10:18;;;;;;;5.35;1.83;;;11.90;99.90;;;;;;5346391;26;20091;-76
2024/04/18 07:12:43;;;;;;;4.95;1.20;;;11.90;99.90;;;;;;5345846;26;20009;-75
2024/04/18 07:15:09;;;;;;;4.07;1.27;;;11.90;99.90;;;;;;5345602;26;20001;-76
2024/04/18 07:17:35;;;;;;;7.40;1.90;;;11.90;99.90;;;;;;5344332;26;20004;-76
2024/04/18 07:20:00;;;;;;;3.20;1.50;;;11.90;99.90;;;;;;5345916;26;20036;-76
2024/04/18 07:22:26;;;;;;;4.82;1.40;;;11.50;99.90;;;;;;5345976;26;20352;-76
2024/04/18 07:24:52;;;;;;;6.05;1.80;;;11.10;99.90;;;;;;5345326;26;20013;-76
2024/04/18 07:27:17;;;;;;;4.45;1.60;;;11.10;99.90;;;;;;5345239;26;20020;-75
2024/04/18 07:29:43;;;;;;;2.47;1.45;;;11.40;99.90;;;;;;5345530;26;20397;-76
2024/04/18 07:32:09;;;;;;;2.03;1.40;;;11.20;99.90;;;;;;5344801;26;20044;-75
2024/04/18 07:34:35;;;;;;;3.20;1.50;;;11.10;99.90;;;;;;5345123;26;20020;-75
2024/04/18 07:37:00;;;;;;;8.35;1.83;;;11.10;99.90;;;;;;5345020;26;20009;-75
2024/04/18 07:39:26;;;;;;;7.70;2.47;;;11.10;99.90;;;;;;5345693;26;20009;-75
2024/04/18 07:41:52;;;;;;;4.40;1.50;;;11.30;99.90;;;;;;5345367;26;20009;-76
2024/04/18 07:44:18;;;;;;;4.20;1.48;;;11.80;99.90;;;;;;5345372;26;20005;-76
2024/04/18 07:46:44;;;;;;;2.47;1.42;;;11.90;99.90;;;;;;5346390;26;20082;-74
2024/04/18 07:49:13;;;;;;;4.78;2.10;;;12.20;99.90;;;;;;5345907;26;20005;-74
2024/04/18 07:51:41;;;;;;;5.05;1.65;;;12.60;99.90;;;;;;5343724;26;20033;-74
2024/04/18 07:54:07;;;;;;;5.00;1.30;;;13.00;99.90;;;;;;5345314;26;20012;-74
2024/04/18 07:56:33;;;;;;;4.00;1.60;;;12.80;99.90;;;;;;5346183;26;20012;-73
2024/04/18 07:58:58;;;;;;;2.58;1.08;;;12.60;99.90;;;;;;5347821;26;20012;-74
2024/04/18 08:01:24;;;;;;;2.40;1.10;;;12.60;99.90;;;;;;5345304;26;20465;-74
2024/04/18 08:03:50;;;;;;;4.70;1.42;;;12.10;99.90;;;;;;5344864;26;20017;-74
2024/04/18 08:06:15;;;;;;;3.70;0.90;;;11.50;99.90;;;;;;5345295;26;20419;-74
2024/04/18 08:08:41;;;;;;;3.55;1.17;;;11.10;99.90;;;;;;5357589;26;20059;-74
2024/04/18 08:11:09;;;;;;;1.42;0.70;;;10.70;99.90;;;;;;5357142;26;20021;-74
2024/04/18 08:13:36;;;;;;;6.65;1.00;;;10.60;99.90;;;;;;5342929;26;20009;-74
2024/04/18 08:16:02;;;;;;;1.65;0.60;;;10.50;99.90;;;;;;5345293;26;20001;-74
2024/04/18 08:18:28;;;;;;;1.75;0.60;;;10.30;99.90;;;;;;5345342;26;20476;-73
2024/04/18 08:20:56;;;;;;;3.90;0.82;;;10.40;99.90;;;;;;5345182;26;20472;-74
2024/04/18 08:23:25;;;;;;;2.88;0.80;;;10.70;99.90;;;;;;5344971;26;20016;-74
2024/04/18 08:25:51;;;;;;;3.17;0.70;;;10.90;99.90;;;;;;5345044;26;20541;-74
2024/04/18 08:28:17;;;;;;;5.63;0.82;;;11.40;99.90;;;;;;5345131;26;20004;-74
2024/04/18 08:30:44;;;;;;;2.38;0.88;;;11.60;99.90;;;;;;5344846;26;20005;-74
2024/04/18 08:33:09;;;;;;;4.60;0.90;;;11.90;99.90;;;;;;5345065;26;20049;-75
2024/04/18 08:35:35;;;;;;;4.63;1.00;;;12.50;99.90;;;;;;5343387;26;20485;-74
2024/04/18 08:38:01;;;;;;;4.82;0.70;;;12.30;99.90;;;;;;5345231;26;20051;-75
2024/04/18 08:40:27;;;;;;;2.20;0.70;;;12.30;99.90;;;;;;5344576;26;20004;-75
2024/04/18 08:42:53;;;;;;;2.67;0.90;;;12.60;99.90;;;;;;5344752;26;20078;-76
2024/04/18 08:45:24;;;;;;;3.03;0.68;;;13.30;99.90;;;;;;5344280;26;20426;-76
2024/04/18 08:47:52;;;;;;;2.70;0.93;;;13.00;99.60;;;;;;5345265;26;20071;-76
2024/04/18 08:50:19;;;;;;;5.28;0.70;;;12.80;99.90;;;;;;5344168;26;20485;-75
2024/04/18 08:52:46;;;;;;;5.25;1.02;;;13.10;99.90;;;;;;5344137;26;20032;-75
2024/04/18 08:55:12;;;;;;;3.17;0.80;;;13.30;98.50;;;;;;5343567;26;20349;-75
2024/04/18 08:57:47;;;;;;;2.75;0.60;;;12.60;96.90;;;;;;5343839;26;20035;-75
2024/04/18 09:00:13;;;;;;;3.10;1.00;;;12.60;99.80;;;;;;5343575;26;20016;-74
2024/04/18 09:02:39;;;;;;;1.27;0.80;;;11.90;99.30;;;;;;5343924;26;20008;-75
2024/04/18 09:05:05;;;;;;;2.08;0.50;;;11.70;99.10;;;;;;5343208;26;20005;-75
2024/04/18 09:07:31;;;;;;;2.22;0.88;;;11.60;99.70;;;;;;5344024;26;20020;-75
2024/04/18 09:10:07;;;;;;;5.53;0.68;;;11.80;99.90;;;;;;5327625;26;20444;-75
2024/04/18 09:12:36;;;;;;;0.75;0.40;;;11.80;94.70;;;;;;5343344;26;20021;-75
2024/04/18 09:15:03;;;;;;;1.10;0.73;;;11.60;97.90;;;;;;5343185;26;20028;-75
2024/04/18 09:17:29;;;;;;;3.25;1.38;;;11.40;98.50;;;;;;5335277;26;20026;-75
2024/04/18 09:19:55;;;;;;;3.92;1.30;;;11.60;97.80;;;;;;5326731;26;20054;-75
2024/04/18 09:22:21;;;;;;;2.60;0.93;;;12.10;99.90;;;;;;5340239;26;20016;-75
2024/04/18 09:24:47;;;;;;;3.70;0.65;;;12.10;96.80;;;;;;5341169;26;20020;-75
2024/04/18 09:27:14;;;;;;;4.93;0.80;;;11.80;97.80;;;;;;5342851;26;20017;-75
2024/04/18 09:29:40;;;;;;;2.70;0.65;;;11.60;97.70;;;;;;5346061;26;20005;-75
2024/04/18 09:32:06;;;;;;;7.55;1.25;;;11.60;99.30;;;;;;5346320;26;20009;-75
2024/04/18 09:34:35;;;;;;;3.15;0.93;;;12.00;97.30;;;;;;5346132;26;20013;-74
2024/04/18 09:37:05;;;;;;;5.13;1.00;;;12.00;95.90;;;;;;5346882;26;20427;-75
2024/04/18 09:39:33;;;;;;;3.08;0.75;;;12.10;93.40;;;;;;5347448;26;20396;-75
2024/04/18 09:42:28;;;;;;;8.68;0.88;;;12.10;92.40;;;;;;5347065;26;20074;-75
2024/04/18 09:44:58;;;;;;;1.58;0.50;;;12.30;90.60;;;;;;5359929;26;20000;-74
2024/04/18 09:47:25;;;;;;;1.42;0.60;;;12.50;92.90;;;;;;5347817;26;20005;-73
2024/04/18 09:49:53;;;;;;;3.13;0.80;;;12.10;88.10;;;;;;5346890;26;20427;-73
2024/04/18 09:52:20;;;;;;;3.08;0.80;;;12.40;88.00;;;;;;5347438;26;20753;-75
2024/04/18 09:54:47;;;;;;;2.72;1.00;;;12.90;90.10;;;;;;5346768;26;20013;-75
2024/04/18 09:57:15;;;;;;;2.95;0.70;;;13.30;91.80;;;;;;5347163;26;20005;-75
2024/04/18 09:59:42;;;;;;;2.40;0.77;;;12.80;82.90;;;;;;5347036;26;20004;-74
2024/04/18 10:02:12;;;;;;;3.55;0.60;;;12.50;81.10;;;;;;5346847;26;20004;-74
2024/04/18 10:04:39;;;;;;;4.22;0.60;;;12.10;78.70;;;;;;5346721;26;20001;-74
2024/04/18 10:07:08;;;;;;;2.97;1.00;;;12.10;82.40;;;;;;5347265;26;20372;-74
2024/04/18 10:09:36;;;;;;;2.88;0.65;;;12.30;81.90;;;;;;5346900;26;20005;-74
2024/04/18 10:12:02;;;;;;;2.63;0.80;;;12.40;85.30;;;;;;5346891;26;20017;-74
2024/04/18 10:14:28;;;;;;;2.15;0.50;;;12.20;85.10;;;;;;5346420;26;20361;-74
2024/04/18 10:16:54;;;;;;;5.47;1.02;;;12.00;86.20;;;;;;5347179;26;20005;-74
2024/04/18 10:19:21;;;;;;;4.53;0.70;;;12.10;90.90;;;;;;5346973;26;20020;-74
2024/04/18 10:21:57;;;;;;;5.30;0.77;;;11.90;89.60;;;;;;5346551;26;20005;-74
2024/04/18 10:24:29;;;;;;;1.92;0.70;;;11.80;90.20;;;;;;5346225;26;20001;-74
2024/04/18 10:26:59;;;;;;;11.68;1.40;;;11.60;90.50;;;;;;5346753;26;20023;-74
2024/04/18 10:29:26;;;;;;;1.73;0.60;;;11.70;92.10;;;;;;5346797;26;20005;-74
2024/04/18 10:31:56;;;;;;;3.03;0.77;;;11.60;92.30;;;;;;5346472;26;20004;-74
2024/04/18 10:34:24;;;;;;;3.60;0.80;;;11.60;95.80;;;;;;5345864;26;20378;-76
2024/04/18 10:36:50;;;;;;;4.63;0.95;;;11.40;93.90;;;;;;5345886;26;20090;-77
2024/04/18 10:39:35;;;;;;;7.70;1.20;;;11.40;94.10;;;;;;5344611;26;20021;-77
2024/04/18 10:42:02;;;;;;;2.83;1.02;;;11.60;93.80;;;;;;5338588;26;20018;-77
2024/04/18 10:44:28;;;;;;;3.08;0.77;;;11.80;95.40;;;;;;5343946;26;20017;-77
2024/04/18 10:46:57;;;;;;;2.08;0.80;;;11.40;93.30;;;;;;5345882;26;20019;-77
2024/04/18 10:49:23;;;;;;;5.47;1.55;;;11.80;98.00;;;;;;5341717;26;20020;-77
2024/04/18 10:51:55;;;;;;;2.50;0.98;;;12.10;97.20;;;;;;5345690;26;20008;-77
2024/04/18 10:54:21;;;;;;;2.17;0.98;;;12.30;97.60;;;;;;5345747;26;20074;-77
2024/04/18 10:56:48;;;;;;;3.97;1.00;;;12.30;95.70;;;;;;5346644;26;20013;-76
2024/04/18 10:59:14;;;;;;;5.05;0.95;;;12.50;95.80;;;;;;5346413;26;20005;-76
2024/04/18 11:01:41;;;;;;;4.30;0.85;;;12.30;95.30;;;;;;5345944;26;20005;-77
2024/04/18 11:04:07;;;;;;;2.15;1.02;;;12.40;96.50;;;;;;5345135;26;20130;-77
2024/04/18 11:06:39;;;;;;;4.53;0.80;;;12.30;99.80;;;;;;5345617;26;20016;-76
2024/04/18 11:09:05;;;;;;;5.88;1.00;;;12.40;99.90;;;;;;5341407;26;20008;-76
2024/04/18 11:11:33;;;;;;;6.50;1.38;;;12.30;99.90;;;;;;5329305;26;20017;-77
2024/04/18 11:14:02;;;;;;;5.20;1.35;;;12.30;99.90;;;;;;5344549;26;20009;-77
2024/04/18 11:16:28;;;;;;;2.15;0.95;;;12.00;99.90;;;;;;5345286;26;20009;-77
2024/04/18 11:18:54;;;;;;;1.70;0.70;;;11.90;99.90;;;;;;5345965;26;20012;-77
2024/04/18 11:21:19;;;;;;;2.92;0.75;;;11.80;99.90;;;;;;5345754;26;20005;-77
2024/04/18 11:23:50;;;;;;;4.45;1.10;;;11.60;99.90;;;;;;5345233;26;20035;-77
2024/04/18 11:26:18;;;;;;;3.63;1.20;;;11.10;99.90;;;;;;5346003;26;20005;-76
2024/04/18 11:28:48;;;;;;;1.75;0.70;;;11.20;99.90;;;;;;5346208;26;20345;-76
2024/04/18 11:31:14;;;;;;;2.15;0.82;;;11.20;99.90;;;;;;5345810;26;20005;-76
2024/04/18 11:33:40;;;;;;;2.95;1.00;;;10.90;99.90;;;;;;5345324;26;20004;-77
2024/04/18 11:36:07;;;;;;;2.22;0.77;;;10.90;99.90;;;;;;5345931;26;20005;-76
2024/04/18 11:38:34;;;;;;;4.03;1.30;;;10.90;99.90;;;;;;5346303;26;20468;-76
2024/04/18 11:41:00;;;;;;;4.18;1.00;;;10.90;99.90;;;;;;5345583;26;20013;-77
2024/04/18 11:43:26;;;;;;;3.35;1.35;;;11.10;99.90;;;;;;5345330;26;20357;-77
2024/04/18 11:45:52;;;;;;;7.35;1.20;;;11.20;99.90;;;;;;5345451;26;20013;-76
2024/04/18 11:48:18;;;;;;;3.85;1.10;;;11.20;99.90;;;;;;5345871;26;20015;-77
2024/04/18 11:50:44;;;;;;;2.97;1.45;;;11.40;99.90;;;;;;5345213;26;20045;-76
2024/04/18 11:53:09;;;;;;;5.55;1.75;;;11.50;99.90;;;;;;5345428;26;20005;-76
2024/04/18 11:55:36;;;;;;;6.07;1.02;;;11.60;99.90;;;;;;5345081;26;20001;-77
2024/04/18 11:58:03;;;;;;;4.72;1.20;;;11.80;99.90;;;;;;5345707;26;20484;-77
2024/04/18 12:00:29;;;;;;;8.88;0.85;;;11.90;99.90;;;;;;5345581;26;20005;-76
2024/04/18 12:02:55;;;;;;;4.07;1.30;;;12.00;99.90;;;;;;5345360;26;20460;-76
2024/04/18 12:05:24;;;;;;;4.55;1.02;;;11.90;99.90;;;;;;5344526;26;20016;-76
2024/04/18 12:07:50;;;;;;;5.50;1.20;;;11.70;99.90;;;;;;5344793;26;20453;-76
2024/04/18 12:10:16;;;;;;;4.97;1.67;;;11.70;99.90;;;;;;5328876;26;20013;-77
2024/04/18 12:12:42;;;;;;;4.55;1.00;;;11.60;99.90;;;;;;5344485;26;20009;-76
2024/04/18 12:15:09;;;;;;;4.22;1.27;;;11.30;99.90;;;;;;5344045;26;20463;-76
2024/04/18 12:17:36;;;;;;;7.18;1.00;;;11.40;99.90;;;;;;5344626;26;20082;-73
2024/04/18 12:20:02;;;;;;;5.50;1.20;;;11.50;99.90;;;;;;5344501;26;20116;-73
2024/04/18 12:22:28;;;;;;;4.75;0.90;;;11.40;99.90;;;;;;5344647;26;20015;-74
2024/04/18 12:24:54;;;;;;;6.85;1.20;;;11.60;99.90;;;;;;5344548;26;20005;-74
2024/04/18 12:27:21;;;;;;;5.60;1.40;;;11.60;99.90;;;;;;5343488;26;20079;-74
2024/04/18 12:29:47;;;;;;;4.22;1.00;;;11.60;99.90;;;;;;5344856;26;20016;-75
2024/04/18 12:32:16;;;;;;;4.68;1.45;;;11.50;99.90;;;;;;5344095;26;20485;-74
2024/04/18 12:34:42;;;;;;;3.78;1.10;;;11.40;99.90;;;;;;5344439;26;20008;-74
2024/04/18 12:37:08;;;;;;;4.45;1.00;;;11.50;99.90;;;;;;5344945;26;20001;-74
2024/04/18 12:39:33;;;;;;;3.40;1.40;;;11.60;99.90;;;;;;5344897;26;20088;-74
2024/04/18 12:42:00;;;;;;;6.47;1.25;;;11.60;99.90;;;;;;5344610;26;20001;-75
2024/04/18 12:44:26;;;;;;;7.40;2.10;;;11.60;99.90;;;;;;5344211;26;20005;-75
2024/04/18 12:46:51;;;;;;;4.78;1.02;;;11.60;99.90;;;;;;5344835;26;20054;-75
2024/04/18 12:49:17;;;;;;;4.13;1.00;;;11.70;99.90;;;;;;5343254;26;20005;-74
2024/04/18 12:51:43;;;;;;;7.15;1.50;;;11.70;99.90;;;;;;5344291;26;20079;-74
2024/04/18 12:54:10;;;;;;;5.82;1.05;;;11.50;99.90;;;;;;5344472;26;20136;-75